sensor_id;sensor_type;location;lat;lon;timestamp;P1;durP1;ratioP1;P2;durP2;ratioP2
10343;SDS011;5217;43.960;10.954;2023-02-11T00:01:18;7.43;;;6.70;;
10343;SDS011;5217;43.960;10.954;2023-02-11T00:03:50;7.13;;;6.43;;
10343;SDS011;5217;43.960;10.954;2023-02-11T00:06:19;7.03;;;6.33;;
10343;SDS011;5217;43.960;10.954;2023-02-11T00:08:47;6.50;;;5.90;;
10343;SDS011;5217;43.960;10.954;2023-02-11T00:11:18;6.40;;;5.80;;
10343;SDS011;5217;43.960;10.954;2023-02-11T00:13:49;6.40;;;5.80;;
10343;SDS011;5217;43.960;10.954;2023-02-11T00:16:19;6.43;;;5.83;;
10343;SDS011;5217;43.960;10.954;2023-02-11T00:18:48;6.93;;;5.93;;
10343;SDS011;5217;43.960;10.954;2023-02-11T00:21:19;7.97;;;7.17;;
10343;SDS011;5217;43.960;10.954;2023-02-11T00:23:49;7.57;;;6.77;;
10343;SDS011;5217;43.960;10.954;2023-02-11T00:26:19;7.53;;;6.93;;
10343;SDS011;5217;43.960;10.954;2023-02-11T00:28:49;7.00;;;6.30;;
10343;SDS011;5217;43.960;10.954;2023-02-11T00:31:19;7.27;;;6.57;;
10343;SDS011;5217;43.960;10.954;2023-02-11T00:33:49;7.90;;;7.10;;
10343;SDS011;5217;43.960;10.954;2023-02-11T00:36:19;8.27;;;7.40;;
10343;SDS011;5217;43.960;10.954;2023-02-11T00:38:49;8.40;;;7.33;;
10343;SDS011;5217;43.960;10.954;2023-02-11T00:41:20;8.50;;;7.70;;
10343;SDS011;5217;43.960;10.954;2023-02-11T00:43:49;8.10;;;7.40;;
10343;SDS011;5217;43.960;10.954;2023-02-11T00:46:18;9.10;;;8.20;;
10343;SDS011;5217;43.960;10.954;2023-02-11T00:48:47;8.90;;;8.03;;
10343;SDS011;5217;43.960;10.954;2023-02-11T00:51:17;8.00;;;7.20;;
10343;SDS011;5217;43.960;10.954;2023-02-11T00:53:45;7.97;;;7.27;;
10343;SDS011;5217;43.960;10.954;2023-02-11T00:56:13;7.57;;;6.87;;
10343;SDS011;5217;43.960;10.954;2023-02-11T00:58:43;7.23;;;6.53;;
10343;SDS011;5217;43.960;10.954;2023-02-11T01:01:12;7.93;;;7.23;;
10343;SDS011;5217;43.960;10.954;2023-02-11T01:03:41;7.60;;;6.87;;
10343;SDS011;5217;43.960;10.954;2023-02-11T01:06:09;7.97;;;7.17;;
10343;SDS011;5217;43.960;10.954;2023-02-11T01:08:38;6.80;;;6.20;;
10343;SDS011;5217;43.960;10.954;2023-02-11T01:11:09;6.77;;;6.17;;
10343;SDS011;5217;43.960;10.954;2023-02-11T01:13:40;5.80;;;5.27;;
10343;SDS011;5217;43.960;10.954;2023-02-11T01:16:11;6.60;;;6.00;;
10343;SDS011;5217;43.960;10.954;2023-02-11T01:18:40;6.10;;;5.57;;
10343;SDS011;5217;43.960;10.954;2023-02-11T01:21:10;5.70;;;5.20;;
10343;SDS011;5217;43.960;10.954;2023-02-11T01:23:38;5.97;;;5.43;;
10343;SDS011;5217;43.960;10.954;2023-02-11T01:26:06;5.77;;;5.27;;
10343;SDS011;5217;43.960;10.954;2023-02-11T01:28:35;5.60;;;5.10;;
10343;SDS011;5217;43.960;10.954;2023-02-11T01:31:04;6.07;;;5.50;;
10343;SDS011;5217;43.960;10.954;2023-02-11T01:33:33;5.60;;;5.10;;
10343;SDS011;5217;43.960;10.954;2023-02-11T01:36:02;5.73;;;5.23;;
10343;SDS011;5217;43.960;10.954;2023-02-11T01:38:32;5.97;;;5.37;;
10343;SDS011;5217;43.960;10.954;2023-02-11T01:41:03;6.03;;;5.00;;
10343;SDS011;5217;43.960;10.954;2023-02-11T01:43:33;5.60;;;5.10;;
10343;SDS011;5217;43.960;10.954;2023-02-11T01:46:12;6.20;;;5.10;;
10343;SDS011;5217;43.960;10.954;2023-02-11T01:48:48;6.47;;;5.90;;
10343;SDS011;5217;43.960;10.954;2023-02-11T01:51:20;5.90;;;5.30;;
10343;SDS011;5217;43.960;10.954;2023-02-11T01:53:51;5.83;;;5.23;;
10343;SDS011;5217;43.960;10.954;2023-02-11T01:56:38;5.50;;;5.00;;
10343;SDS011;5217;43.960;10.954;2023-02-11T01:59:30;5.90;;;5.30;;
10343;SDS011;5217;43.960;10.954;2023-02-11T02:02:04;5.90;;;5.30;;
10343;SDS011;5217;43.960;10.954;2023-02-11T02:04:39;5.70;;;5.20;;
10343;SDS011;5217;43.960;10.954;2023-02-11T02:07:16;6.47;;;5.80;;
10343;SDS011;5217;43.960;10.954;2023-02-11T02:09:51;5.30;;;4.80;;
10343;SDS011;5217;43.960;10.954;2023-02-11T02:12:25;5.90;;;5.40;;
10343;SDS011;5217;43.960;10.954;2023-02-11T02:15:10;5.60;;;5.00;;
10343;SDS011;5217;43.960;10.954;2023-02-11T02:17:58;5.13;;;4.67;;
10343;SDS011;5217;43.960;10.954;2023-02-11T02:23:34;7.70;;;5.63;;
10343;SDS011;5217;43.960;10.954;2023-02-11T02:26:25;6.53;;;5.90;;
10343;SDS011;5217;43.960;10.954;2023-02-11T02:29:35;6.47;;;5.87;;
10343;SDS011;5217;43.960;10.954;2023-02-11T02:35:22;7.00;;;6.30;;
10343;SDS011;5217;43.960;10.954;2023-02-11T02:37:56;6.83;;;6.23;;
10343;SDS011;5217;43.960;10.954;2023-02-11T02:40:30;7.67;;;6.87;;
10343;SDS011;5217;43.960;10.954;2023-02-11T02:43:01;6.33;;;5.73;;
10343;SDS011;5217;43.960;10.954;2023-02-11T02:45:31;6.73;;;6.13;;
10343;SDS011;5217;43.960;10.954;2023-02-11T02:48:01;7.63;;;6.93;;
10343;SDS011;5217;43.960;10.954;2023-02-11T02:50:32;6.13;;;5.53;;
10343;SDS011;5217;43.960;10.954;2023-02-11T02:53:07;5.93;;;5.43;;
10343;SDS011;5217;43.960;10.954;2023-02-11T02:55:47;6.40;;;5.70;;
10343;SDS011;5217;43.960;10.954;2023-02-11T02:58:27;5.97;;;5.47;;
10343;SDS011;5217;43.960;10.954;2023-02-11T03:01:19;6.37;;;5.77;;
10343;SDS011;5217;43.960;10.954;2023-02-11T03:04:00;6.47;;;5.80;;
10343;SDS011;5217;43.960;10.954;2023-02-11T03:06:37;6.13;;;5.53;;
10343;SDS011;5217;43.960;10.954;2023-02-11T03:09:13;6.30;;;5.80;;
10343;SDS011;5217;43.960;10.954;2023-02-11T03:11:47;6.80;;;5.90;;
10343;SDS011;5217;43.960;10.954;2023-02-11T03:14:16;7.17;;;6.57;;
10343;SDS011;5217;43.960;10.954;2023-02-11T03:16:45;6.70;;;6.10;;
10343;SDS011;5217;43.960;10.954;2023-02-11T03:19:18;6.60;;;6.00;;
10343;SDS011;5217;43.960;10.954;2023-02-11T03:21:49;6.97;;;6.37;;
10343;SDS011;5217;43.960;10.954;2023-02-11T03:24:20;7.50;;;6.80;;
10343;SDS011;5217;43.960;10.954;2023-02-11T03:26:55;7.30;;;6.60;;
10343;SDS011;5217;43.960;10.954;2023-02-11T03:29:30;5.87;;;5.37;;
10343;SDS011;5217;43.960;10.954;2023-02-11T03:32:03;5.77;;;5.23;;
10343;SDS011;5217;43.960;10.954;2023-02-11T03:34:41;5.83;;;5.30;;
10343;SDS011;5217;43.960;10.954;2023-02-11T03:37:15;5.80;;;5.27;;
10343;SDS011;5217;43.960;10.954;2023-02-11T03:39:49;6.10;;;5.50;;
10343;SDS011;5217;43.960;10.954;2023-02-11T03:42:19;5.43;;;4.93;;
10343;SDS011;5217;43.960;10.954;2023-02-11T03:44:52;5.80;;;5.10;;
10343;SDS011;5217;43.960;10.954;2023-02-11T03:47:26;5.20;;;4.70;;
10343;SDS011;5217;43.960;10.954;2023-02-11T03:50:00;5.93;;;5.33;;
10343;SDS011;5217;43.960;10.954;2023-02-11T03:52:31;6.33;;;5.73;;
10343;SDS011;5217;43.960;10.954;2023-02-11T03:55:02;5.63;;;5.13;;
10343;SDS011;5217;43.960;10.954;2023-02-11T03:57:34;5.80;;;5.30;;
10343;SDS011;5217;43.960;10.954;2023-02-11T04:00:03;5.50;;;5.00;;
10343;SDS011;5217;43.960;10.954;2023-02-11T04:02:34;4.97;;;4.47;;
10343;SDS011;5217;43.960;10.954;2023-02-11T04:05:05;5.23;;;4.73;;
10343;SDS011;5217;43.960;10.954;2023-02-11T04:07:35;4.97;;;4.47;;
10343;SDS011;5217;43.960;10.954;2023-02-11T04:10:04;5.83;;;4.23;;
10343;SDS011;5217;43.960;10.954;2023-02-11T04:12:34;4.60;;;4.20;;
10343;SDS011;5217;43.960;10.954;2023-02-11T04:15:03;5.13;;;4.63;;
10343;SDS011;5217;43.960;10.954;2023-02-11T04:17:32;5.33;;;4.83;;
10343;SDS011;5217;43.960;10.954;2023-02-11T04:20:01;5.70;;;5.20;;
10343;SDS011;5217;43.960;10.954;2023-02-11T04:22:32;5.83;;;5.20;;
10343;SDS011;5217;43.960;10.954;2023-02-11T04:25:00;5.27;;;4.77;;
10343;SDS011;5217;43.960;10.954;2023-02-11T04:27:29;4.83;;;4.33;;
10343;SDS011;5217;43.960;10.954;2023-02-11T04:29:58;4.53;;;4.13;;
10343;SDS011;5217;43.960;10.954;2023-02-11T04:32:26;4.57;;;4.17;;
10343;SDS011;5217;43.960;10.954;2023-02-11T04:34:54;4.63;;;4.23;;
10343;SDS011;5217;43.960;10.954;2023-02-11T04:37:23;5.00;;;4.53;;
10343;SDS011;5217;43.960;10.954;2023-02-11T04:39:53;6.23;;;5.10;;
10343;SDS011;5217;43.960;10.954;2023-02-11T04:42:21;5.43;;;4.87;;
10343;SDS011;5217;43.960;10.954;2023-02-11T04:44:49;4.13;;;3.83;;
10343;SDS011;5217;43.960;10.954;2023-02-11T04:47:18;4.30;;;3.90;;
10343;SDS011;5217;43.960;10.954;2023-02-11T04:49:46;4.63;;;4.23;;
10343;SDS011;5217;43.960;10.954;2023-02-11T04:52:14;4.47;;;4.07;;
10343;SDS011;5217;43.960;10.954;2023-02-11T04:54:43;4.70;;;4.30;;
10343;SDS011;5217;43.960;10.954;2023-02-11T04:57:12;4.57;;;4.17;;
10343;SDS011;5217;43.960;10.954;2023-02-11T04:59:41;4.60;;;4.20;;
10343;SDS011;5217;43.960;10.954;2023-02-11T05:02:09;4.77;;;4.37;;
10343;SDS011;5217;43.960;10.954;2023-02-11T05:04:38;4.87;;;4.47;;
10343;SDS011;5217;43.960;10.954;2023-02-11T05:07:06;4.80;;;4.40;;
10343;SDS011;5217;43.960;10.954;2023-02-11T05:09:35;4.70;;;4.30;;
10343;SDS011;5217;43.960;10.954;2023-02-11T05:12:03;5.17;;;4.67;;
10343;SDS011;5217;43.960;10.954;2023-02-11T05:14:33;4.17;;;3.77;;
10343;SDS011;5217;43.960;10.954;2023-02-11T05:17:01;4.57;;;4.17;;
10343;SDS011;5217;43.960;10.954;2023-02-11T05:19:30;4.63;;;4.23;;
10343;SDS011;5217;43.960;10.954;2023-02-11T05:21:58;4.30;;;3.90;;
10343;SDS011;5217;43.960;10.954;2023-02-11T05:24:29;4.17;;;3.87;;
10343;SDS011;5217;43.960;10.954;2023-02-11T05:26:58;4.30;;;3.90;;
10343;SDS011;5217;43.960;10.954;2023-02-11T05:29:27;5.43;;;4.17;;
10343;SDS011;5217;43.960;10.954;2023-02-11T05:31:57;3.97;;;3.67;;
10343;SDS011;5217;43.960;10.954;2023-02-11T05:34:25;4.70;;;4.30;;
10343;SDS011;5217;43.960;10.954;2023-02-11T05:36:53;4.40;;;3.90;;
10343;SDS011;5217;43.960;10.954;2023-02-11T05:39:22;4.40;;;4.00;;
10343;SDS011;5217;43.960;10.954;2023-02-11T05:41:50;4.27;;;3.87;;
10343;SDS011;5217;43.960;10.954;2023-02-11T05:44:19;4.10;;;3.70;;
10343;SDS011;5217;43.960;10.954;2023-02-11T05:46:47;4.50;;;4.10;;
10343;SDS011;5217;43.960;10.954;2023-02-11T05:49:17;4.23;;;3.87;;
10343;SDS011;5217;43.960;10.954;2023-02-11T05:51:45;3.80;;;3.50;;
10343;SDS011;5217;43.960;10.954;2023-02-11T05:54:14;3.70;;;3.40;;
10343;SDS011;5217;43.960;10.954;2023-02-11T05:56:42;4.10;;;3.70;;
10343;SDS011;5217;43.960;10.954;2023-02-11T05:59:11;3.67;;;3.37;;
10343;SDS011;5217;43.960;10.954;2023-02-11T06:01:40;4.23;;;3.83;;
10343;SDS011;5217;43.960;10.954;2023-02-11T06:04:09;4.10;;;3.70;;
10343;SDS011;5217;43.960;10.954;2023-02-11T06:06:39;4.33;;;3.93;;
10343;SDS011;5217;43.960;10.954;2023-02-11T06:09:08;4.73;;;4.33;;
10343;SDS011;5217;43.960;10.954;2023-02-11T06:11:37;4.63;;;4.23;;
10343;SDS011;5217;43.960;10.954;2023-02-11T06:14:05;5.50;;;4.10;;
10343;SDS011;5217;43.960;10.954;2023-02-11T06:16:35;8.20;;;7.40;;
10343;SDS011;5217;43.960;10.954;2023-02-11T06:19:03;8.07;;;7.27;;
10343;SDS011;5217;43.960;10.954;2023-02-11T06:21:32;6.00;;;5.40;;
10343;SDS011;5217;43.960;10.954;2023-02-11T06:24:11;5.30;;;4.80;;
10343;SDS011;5217;43.960;10.954;2023-02-11T06:26:39;6.17;;;5.10;;
10343;SDS011;5217;43.960;10.954;2023-02-11T06:29:08;15.73;;;14.10;;
10343;SDS011;5217;43.960;10.954;2023-02-11T06:31:36;13.93;;;12.57;;
10343;SDS011;5217;43.960;10.954;2023-02-11T06:34:05;21.50;;;17.30;;
10343;SDS011;5217;43.960;10.954;2023-02-11T06:36:33;44.77;;;36.77;;
10343;SDS011;5217;43.960;10.954;2023-02-11T06:39:02;49.90;;;42.30;;
10343;SDS011;5217;43.960;10.954;2023-02-11T06:41:32;47.03;;;40.63;;
10343;SDS011;5217;43.960;10.954;2023-02-11T06:44:00;31.53;;;27.70;;
10343;SDS011;5217;43.960;10.954;2023-02-11T06:46:29;22.93;;;20.00;;
10343;SDS011;5217;43.960;10.954;2023-02-11T06:48:57;16.13;;;14.40;;
10343;SDS011;5217;43.960;10.954;2023-02-11T06:51:26;13.10;;;11.47;;
10343;SDS011;5217;43.960;10.954;2023-02-11T06:53:54;11.70;;;8.83;;
10343;SDS011;5217;43.960;10.954;2023-02-11T06:56:23;8.87;;;7.97;;
10343;SDS011;5217;43.960;10.954;2023-02-11T06:58:54;8.37;;;7.50;;
10343;SDS011;5217;43.960;10.954;2023-02-11T07:01:23;7.67;;;6.67;;
10343;SDS011;5217;43.960;10.954;2023-02-11T07:03:52;7.57;;;6.87;;
10343;SDS011;5217;43.960;10.954;2023-02-11T07:06:21;7.87;;;6.47;;
10343;SDS011;5217;43.960;10.954;2023-02-11T07:08:53;7.47;;;6.77;;
10343;SDS011;5217;43.960;10.954;2023-02-11T07:11:23;9.97;;;8.30;;
10343;SDS011;5217;43.960;10.954;2023-02-11T07:13:55;10.83;;;9.10;;
10343;SDS011;5217;43.960;10.954;2023-02-11T07:16:26;13.90;;;9.67;;
10343;SDS011;5217;43.960;10.954;2023-02-11T07:18:55;12.27;;;10.17;;
10343;SDS011;5217;43.960;10.954;2023-02-11T07:21:23;12.53;;;10.40;;
10343;SDS011;5217;43.960;10.954;2023-02-11T07:23:51;10.60;;;9.50;;
10343;SDS011;5217;43.960;10.954;2023-02-11T07:26:20;10.70;;;9.57;;
10343;SDS011;5217;43.960;10.954;2023-02-11T07:28:51;10.73;;;9.63;;
10343;SDS011;5217;43.960;10.954;2023-02-11T07:31:22;11.17;;;9.73;;
10343;SDS011;5217;43.960;10.954;2023-02-11T07:33:52;13.93;;;12.53;;
10343;SDS011;5217;43.960;10.954;2023-02-11T07:36:22;13.57;;;12.27;;
10343;SDS011;5217;43.960;10.954;2023-02-11T07:38:50;12.60;;;10.53;;
10343;SDS011;5217;43.960;10.954;2023-02-11T07:41:20;14.30;;;10.53;;
10343;SDS011;5217;43.960;10.954;2023-02-11T07:43:49;11.67;;;10.43;;
10343;SDS011;5217;43.960;10.954;2023-02-11T07:46:18;12.87;;;11.03;;
10343;SDS011;5217;43.960;10.954;2023-02-11T07:48:50;13.03;;;11.10;;
10343;SDS011;5217;43.960;10.954;2023-02-11T07:51:19;14.47;;;12.40;;
10343;SDS011;5217;43.960;10.954;2023-02-11T07:53:49;16.30;;;12.07;;
10343;SDS011;5217;43.960;10.954;2023-02-11T07:56:19;15.30;;;11.97;;
10343;SDS011;5217;43.960;10.954;2023-02-11T07:58:47;15.47;;;12.63;;
10343;SDS011;5217;43.960;10.954;2023-02-11T08:01:16;18.57;;;14.93;;
10343;SDS011;5217;43.960;10.954;2023-02-11T08:03:49;15.87;;;13.80;;
10343;SDS011;5217;43.960;10.954;2023-02-11T08:06:18;14.47;;;12.93;;
10343;SDS011;5217;43.960;10.954;2023-02-11T08:08:48;13.00;;;11.30;;
10343;SDS011;5217;43.960;10.954;2023-02-11T08:11:18;11.77;;;10.57;;
10343;SDS011;5217;43.960;10.954;2023-02-11T08:13:48;10.60;;;9.50;;
10343;SDS011;5217;43.960;10.954;2023-02-11T08:16:18;11.13;;;10.03;;
10343;SDS011;5217;43.960;10.954;2023-02-11T08:18:49;12.27;;;11.03;;
10343;SDS011;5217;43.960;10.954;2023-02-11T08:21:18;13.00;;;11.70;;
10343;SDS011;5217;43.960;10.954;2023-02-11T08:23:47;13.93;;;12.53;;
10343;SDS011;5217;43.960;10.954;2023-02-11T08:26:16;14.10;;;12.30;;
10343;SDS011;5217;43.960;10.954;2023-02-11T08:28:46;14.03;;;12.63;;
10343;SDS011;5217;43.960;10.954;2023-02-11T08:31:16;13.87;;;12.47;;
10343;SDS011;5217;43.960;10.954;2023-02-11T08:33:46;14.97;;;13.10;;
10343;SDS011;5217;43.960;10.954;2023-02-11T08:36:16;15.03;;;12.37;;
10343;SDS011;5217;43.960;10.954;2023-02-11T08:38:47;15.70;;;13.83;;
10343;SDS011;5217;43.960;10.954;2023-02-11T08:41:16;15.23;;;13.63;;
10343;SDS011;5217;43.960;10.954;2023-02-11T08:43:45;14.90;;;13.30;;
10343;SDS011;5217;43.960;10.954;2023-02-11T08:46:15;14.37;;;12.87;;
10343;SDS011;5217;43.960;10.954;2023-02-11T08:48:45;16.20;;;14.53;;
10343;SDS011;5217;43.960;10.954;2023-02-11T08:51:16;15.53;;;13.93;;
10343;SDS011;5217;43.960;10.954;2023-02-11T08:53:46;16.23;;;14.57;;
10343;SDS011;5217;43.960;10.954;2023-02-11T08:56:15;14.90;;;13.20;;
10343;SDS011;5217;43.960;10.954;2023-02-11T08:58:45;19.80;;;17.87;;
10343;SDS011;5217;43.960;10.954;2023-02-11T09:01:15;14.77;;;13.27;;
10343;SDS011;5217;43.960;10.954;2023-02-11T09:03:48;15.63;;;14.03;;
10343;SDS011;5217;43.960;10.954;2023-02-11T09:06:18;15.43;;;13.83;;
10343;SDS011;5217;43.960;10.954;2023-02-11T09:08:54;16.03;;;13.53;;
10343;SDS011;5217;43.960;10.954;2023-02-11T09:11:24;16.17;;;14.47;;
10343;SDS011;5217;43.960;10.954;2023-02-11T09:13:54;16.50;;;14.80;;
10343;SDS011;5217;43.960;10.954;2023-02-11T09:16:23;17.77;;;15.87;;
10343;SDS011;5217;43.960;10.954;2023-02-11T09:18:52;17.53;;;15.07;;
10343;SDS011;5217;43.960;10.954;2023-02-11T09:21:24;17.30;;;15.50;;
10343;SDS011;5217;43.960;10.954;2023-02-11T09:23:53;17.03;;;15.33;;
10343;SDS011;5217;43.960;10.954;2023-02-11T09:26:24;17.83;;;15.77;;
10343;SDS011;5217;43.960;10.954;2023-02-11T09:28:54;18.13;;;16.30;;
10343;SDS011;5217;43.960;10.954;2023-02-11T09:31:24;17.77;;;15.97;;
10343;SDS011;5217;43.960;10.954;2023-02-11T09:33:55;17.37;;;15.57;;
10343;SDS011;5217;43.960;10.954;2023-02-11T09:36:26;17.23;;;15.53;;
10343;SDS011;5217;43.960;10.954;2023-02-11T09:38:56;16.70;;;15.07;;
10343;SDS011;5217;43.960;10.954;2023-02-11T09:41:31;17.20;;;15.23;;
10343;SDS011;5217;43.960;10.954;2023-02-11T09:44:06;16.93;;;14.80;;
10343;SDS011;5217;43.960;10.954;2023-02-11T09:46:39;18.93;;;17.07;;
10343;SDS011;5217;43.960;10.954;2023-02-11T09:49:10;22.10;;;19.80;;
10343;SDS011;5217;43.960;10.954;2023-02-11T09:51:47;20.57;;;18.50;;
10343;SDS011;5217;43.960;10.954;2023-02-11T09:54:22;19.40;;;17.40;;
10343;SDS011;5217;43.960;10.954;2023-02-11T09:56:55;19.90;;;17.80;;
10343;SDS011;5217;43.960;10.954;2023-02-11T09:59:24;19.70;;;17.70;;
10343;SDS011;5217;43.960;10.954;2023-02-11T10:01:53;19.60;;;17.53;;
10343;SDS011;5217;43.960;10.954;2023-02-11T10:04:31;20.83;;;18.63;;
10343;SDS011;5217;43.960;10.954;2023-02-11T10:07:17;19.70;;;17.70;;
10343;SDS011;5217;43.960;10.954;2023-02-11T10:09:54;20.87;;;18.77;;
10343;SDS011;5217;43.960;10.954;2023-02-11T10:12:36;21.77;;;19.40;;
10343;SDS011;5217;43.960;10.954;2023-02-11T10:15:20;22.27;;;19.97;;
10343;SDS011;5217;43.960;10.954;2023-02-11T10:18:00;20.90;;;18.80;;
10343;SDS011;5217;43.960;10.954;2023-02-11T10:20:37;24.97;;;21.00;;
10343;SDS011;5217;43.960;10.954;2023-02-11T10:23:14;23.48;;;21.05;;
10343;SDS011;5217;43.960;10.954;2023-02-11T10:25:47;25.13;;;22.47;;
10343;SDS011;5217;43.960;10.954;2023-02-11T10:28:20;27.43;;;24.53;;
10343;SDS011;5217;43.960;10.954;2023-02-11T10:30:53;28.43;;;25.40;;
10343;SDS011;5217;43.960;10.954;2023-02-11T10:33:26;25.33;;;22.60;;
10343;SDS011;5217;43.960;10.954;2023-02-11T10:35:57;24.07;;;21.47;;
10343;SDS011;5217;43.960;10.954;2023-02-11T10:38:27;29.77;;;23.43;;
10343;SDS011;5217;43.960;10.954;2023-02-11T10:40:56;26.00;;;23.20;;
10343;SDS011;5217;43.960;10.954;2023-02-11T10:43:25;25.80;;;22.77;;
10343;SDS011;5217;43.960;10.954;2023-02-11T10:45:55;24.63;;;21.97;;
10343;SDS011;5217;43.960;10.954;2023-02-11T10:48:35;25.97;;;23.17;;
10343;SDS011;5217;43.960;10.954;2023-02-11T10:51:18;21.57;;;19.37;;
10343;SDS011;5217;43.960;10.954;2023-02-11T10:54:05;20.87;;;18.60;;
10343;SDS011;5217;43.960;10.954;2023-02-11T10:56:45;19.53;;;17.50;;
10343;SDS011;5217;43.960;10.954;2023-02-11T10:59:19;19.73;;;15.77;;
10343;SDS011;5217;43.960;10.954;2023-02-11T11:01:55;16.77;;;14.97;;
10343;SDS011;5217;43.960;10.954;2023-02-11T11:04:31;17.63;;;14.07;;
10343;SDS011;5217;43.960;10.954;2023-02-11T11:07:11;14.07;;;12.60;;
10343;SDS011;5217;43.960;10.954;2023-02-11T11:09:49;14.37;;;12.93;;
10343;SDS011;5217;43.960;10.954;2023-02-11T11:12:25;13.60;;;12.30;;
10343;SDS011;5217;43.960;10.954;2023-02-11T11:14:56;13.77;;;12.37;;
10343;SDS011;5217;43.960;10.954;2023-02-11T11:17:26;13.27;;;11.47;;
10343;SDS011;5217;43.960;10.954;2023-02-11T11:22:43;11.60;;;10.40;;
10343;SDS011;5217;43.960;10.954;2023-02-11T11:25:23;11.83;;;10.63;;
10343;SDS011;5217;43.960;10.954;2023-02-11T11:27:55;15.20;;;10.77;;
10343;SDS011;5217;43.960;10.954;2023-02-11T11:30:26;11.63;;;10.23;;
10343;SDS011;5217;43.960;10.954;2023-02-11T11:33:00;10.63;;;9.43;;
10343;SDS011;5217;43.960;10.954;2023-02-11T11:35:29;9.87;;;8.87;;
10343;SDS011;5217;43.960;10.954;2023-02-11T11:38:00;11.95;;;8.75;;
10343;SDS011;5217;43.960;10.954;2023-02-11T11:40:33;12.77;;;8.38;;
10343;SDS011;5217;43.960;10.954;2023-02-11T11:43:03;11.95;;;7.68;;
10343;SDS011;5217;43.960;10.954;2023-02-11T11:45:33;13.60;;;12.20;;
10343;SDS011;5217;43.960;10.954;2023-02-11T11:48:03;13.07;;;11.48;;
10343;SDS011;5217;43.960;10.954;2023-02-11T11:50:38;13.55;;;9.68;;
10343;SDS011;5217;43.960;10.954;2023-02-11T11:53:11;9.32;;;8.38;;
10343;SDS011;5217;43.960;10.954;2023-02-11T11:55:44;8.82;;;7.47;;
10343;SDS011;5217;43.960;10.954;2023-02-11T11:58:17;10.00;;;7.25;;
10343;SDS011;5217;43.960;10.954;2023-02-11T12:00:51;7.93;;;7.03;;
10343;SDS011;5217;43.960;10.954;2023-02-11T12:03:29;11.60;;;8.07;;
10343;SDS011;5217;43.960;10.954;2023-02-11T12:06:20;9.95;;;8.55;;
10343;SDS011;5217;43.960;10.954;2023-02-11T12:09:00;9.63;;;8.45;;
10343;SDS011;5217;43.960;10.954;2023-02-11T12:11:45;9.45;;;8.07;;
10343;SDS011;5217;43.960;10.954;2023-02-11T12:14:26;9.20;;;8.20;;
10343;SDS011;5217;43.960;10.954;2023-02-11T12:17:08;9.25;;;8.25;;
10343;SDS011;5217;43.960;10.954;2023-02-11T12:19:53;9.85;;;8.48;;
10343;SDS011;5217;43.960;10.954;2023-02-11T12:22:37;10.20;;;8.10;;
10343;SDS011;5217;43.960;10.954;2023-02-11T12:25:27;10.30;;;8.60;;
10343;SDS011;5217;43.960;10.954;2023-02-11T12:28:01;10.15;;;8.40;;
10343;SDS011;5217;43.960;10.954;2023-02-11T12:30:42;10.38;;;8.43;;
10343;SDS011;5217;43.960;10.954;2023-02-11T12:33:26;9.98;;;8.15;;
10343;SDS011;5217;43.960;10.954;2023-02-11T12:36:12;11.30;;;9.27;;
10343;SDS011;5217;43.960;10.954;2023-02-11T12:38:53;10.40;;;9.10;;
10343;SDS011;5217;43.960;10.954;2023-02-11T12:41:31;13.40;;;10.68;;
10343;SDS011;5217;43.960;10.954;2023-02-11T12:44:36;11.05;;;9.48;;
10343;SDS011;5217;43.960;10.954;2023-02-11T12:47:14;10.50;;;9.38;;
10343;SDS011;5217;43.960;10.954;2023-02-11T12:52:49;13.82;;;10.75;;
10343;SDS011;5217;43.960;10.954;2023-02-11T12:55:32;15.68;;;11.88;;
10343;SDS011;5217;43.960;10.954;2023-02-11T12:58:03;13.05;;;10.95;;
10343;SDS011;5217;43.960;10.954;2023-02-11T13:00:39;12.77;;;9.55;;
10343;SDS011;5217;43.960;10.954;2023-02-11T13:03:14;10.23;;;8.85;;
10343;SDS011;5217;43.960;10.954;2023-02-11T13:05:50;8.95;;;7.78;;
10343;SDS011;5217;43.960;10.954;2023-02-11T13:08:22;11.82;;;10.25;;
10343;SDS011;5217;43.960;10.954;2023-02-11T13:10:56;14.32;;;11.02;;
10343;SDS011;5217;43.960;10.954;2023-02-11T13:13:29;12.98;;;11.00;;
10343;SDS011;5217;43.960;10.954;2023-02-11T13:16:03;13.80;;;11.38;;
10343;SDS011;5217;43.960;10.954;2023-02-11T13:18:35;15.63;;;11.55;;
10343;SDS011;5217;43.960;10.954;2023-02-11T13:24:19;14.43;;;10.93;;
10343;SDS011;5217;43.960;10.954;2023-02-11T13:26:55;17.95;;;12.98;;
10343;SDS011;5217;43.960;10.954;2023-02-11T13:29:33;14.38;;;12.40;;
10343;SDS011;5217;43.960;10.954;2023-02-11T13:32:16;16.70;;;13.82;;
10343;SDS011;5217;43.960;10.954;2023-02-11T13:37:52;17.63;;;14.13;;
10343;SDS011;5217;43.960;10.954;2023-02-11T13:40:22;17.83;;;13.80;;
10343;SDS011;5217;43.960;10.954;2023-02-11T13:42:53;17.73;;;14.15;;
10343;SDS011;5217;43.960;10.954;2023-02-11T13:45:27;19.20;;;14.20;;
10343;SDS011;5217;43.960;10.954;2023-02-11T13:47:59;16.98;;;14.10;;
10343;SDS011;5217;43.960;10.954;2023-02-11T13:50:31;16.55;;;12.77;;
10343;SDS011;5217;43.960;10.954;2023-02-11T13:53:05;16.83;;;12.68;;
10343;SDS011;5217;43.960;10.954;2023-02-11T13:55:34;14.70;;;11.88;;
10343;SDS011;5217;43.960;10.954;2023-02-11T13:58:16;12.57;;;11.00;;
10343;SDS011;5217;43.960;10.954;2023-02-11T14:00:59;15.50;;;13.10;;
10343;SDS011;5217;43.960;10.954;2023-02-11T14:03:33;12.85;;;10.95;;
10343;SDS011;5217;43.960;10.954;2023-02-11T14:06:21;11.43;;;10.07;;
10343;SDS011;5217;43.960;10.954;2023-02-11T14:15:25;10.15;;;8.25;;
10343;SDS011;5217;43.960;10.954;2023-02-11T14:17:54;8.13;;;6.60;;
10343;SDS011;5217;43.960;10.954;2023-02-11T14:20:37;6.68;;;5.75;;
10343;SDS011;5217;43.960;10.954;2023-02-11T14:23:21;7.65;;;6.20;;
10343;SDS011;5217;43.960;10.954;2023-02-11T14:25:56;6.93;;;6.22;;
10343;SDS011;5217;43.960;10.954;2023-02-11T14:28:35;5.82;;;5.22;;
10343;SDS011;5217;43.960;10.954;2023-02-11T14:31:07;6.75;;;6.05;;
10343;SDS011;5217;43.960;10.954;2023-02-11T14:33:46;13.27;;;11.77;;
10343;SDS011;5217;43.960;10.954;2023-02-11T14:39:28;21.38;;;19.25;;
10343;SDS011;5217;43.960;10.954;2023-02-11T14:42:06;20.90;;;19.00;;
10343;SDS011;5217;43.960;10.954;2023-02-11T14:44:44;13.45;;;11.80;;
10343;SDS011;5217;43.960;10.954;2023-02-11T14:47:16;9.75;;;8.13;;
10343;SDS011;5217;43.960;10.954;2023-02-11T14:49:47;7.65;;;6.63;;
10343;SDS011;5217;43.960;10.954;2023-02-11T14:52:21;6.57;;;5.93;;
10343;SDS011;5217;43.960;10.954;2023-02-11T14:54:56;7.03;;;6.00;;
10343;SDS011;5217;43.960;10.954;2023-02-11T14:57:32;9.05;;;7.43;;
10343;SDS011;5217;43.960;10.954;2023-02-11T15:00:04;9.35;;;7.38;;
10343;SDS011;5217;43.960;10.954;2023-02-11T15:02:42;8.88;;;7.97;;
10343;SDS011;5217;43.960;10.954;2023-02-11T15:07:59;10.02;;;9.02;;
10343;SDS011;5217;43.960;10.954;2023-02-11T15:10:36;9.27;;;8.35;;
10343;SDS011;5217;43.960;10.954;2023-02-11T15:13:13;8.70;;;7.75;;
10343;SDS011;5217;43.960;10.954;2023-02-11T15:15:45;13.60;;;8.52;;
10343;SDS011;5217;43.960;10.954;2023-02-11T15:18:17;8.60;;;7.50;;
10343;SDS011;5217;43.960;10.954;2023-02-11T15:20:49;9.38;;;7.70;;
10343;SDS011;5217;43.960;10.954;2023-02-11T15:23:21;8.30;;;7.35;;
10343;SDS011;5217;43.960;10.954;2023-02-11T15:25:52;8.43;;;7.13;;
10343;SDS011;5217;43.960;10.954;2023-02-11T15:28:22;9.23;;;7.38;;
10343;SDS011;5217;43.960;10.954;2023-02-11T15:30:58;9.70;;;8.43;;
10343;SDS011;5217;43.960;10.954;2023-02-11T15:33:28;9.15;;;7.95;;
10343;SDS011;5217;43.960;10.954;2023-02-11T15:35:58;8.00;;;7.00;;
10343;SDS011;5217;43.960;10.954;2023-02-11T15:38:30;8.60;;;7.57;;